• Join FlightAware (Why Join?)
  • Login
  • US Flag 
11:50AM EDT


 

Airport Tracker/Info


-or-


 

Live Flight TrackerFlight Track Log ✈ JAL884 ✈ 24-Apr-2013 ✈ ZSPD / PVG - RJGG / NGO

Flight Track Log - Related Links

Times and Time Zones

All times are in EDT time to prevent confusion due to time zone crossing. See the JAL884 flight status page for this flight to view local times or setup timezone preferences in your user account.

Time Position Orientation Groundspeed Altitude Reporting Facility
EDT Latitude Longitude Course Direction KTS MPH feet Rate Location/Type
06:22AM 31.2796 122.2236 70° East  Level Estimated
06:23AM 31.3248 122.3677 70° East  Level Estimated
06:24AM 31.3699 122.5118 70° East  Level Estimated
06:25AM 31.4149 122.6562 70° East  Level Estimated
06:26AM 31.4597 122.8006 70° East  Level Estimated
06:27AM 31.5043 122.9452 70° East  Level Estimated
06:28AM 31.5488 123.0899 70° East  Level Estimated
06:29AM 31.5931 123.2348 70° East  Level Estimated
06:30AM 31.6372 123.3798 70° East  Level Estimated
06:31AM 31.6812 123.5249 70° East  Level Estimated
06:32AM 31.7250 123.6702 70° East  Level Estimated
06:33AM 31.7686 123.8156 71° East  Level Estimated
06:34AM 31.8121 123.9612 71° East  Level Estimated
06:35AM 31.8554 124.1069 71° East  Level Estimated
06:36AM 31.8986 124.2527 71° East  Level Estimated
06:37AM 31.9411 124.3972 71° East  Level Estimated
06:38AM 31.9835 124.5418 71° East  Level Estimated
06:39AM 32.0257 124.6866 71° East  Level Estimated
06:40AM 32.0678 124.8315 71° East  Level Estimated
06:41AM 32.1097 124.9766 71° East  Level Estimated
06:42AM 32.1514 125.1218 71° East  Level Estimated
06:43AM 32.1930 125.2671 71° East  Level Estimated
06:44AM 32.2343 125.4125 71° East  Level Estimated
06:45AM 32.2756 125.5581 71° East  Level Estimated
06:46AM 32.3166 125.7038 72° East  Level Estimated
06:47AM 32.3575 125.8496 72° East  Level Estimated
06:48AM 32.3983 125.9956 72° East  Level Estimated
06:49AM 32.4388 126.1417 72° East  Level Estimated
06:50AM 32.4792 126.2880 72° East  Level Estimated
06:51AM 32.5194 126.4343 72° East  Level Estimated
06:52AM 32.5595 126.5808 72° East  Level Estimated
06:53AM 32.5994 126.7275 72° East  Level Estimated
06:54AM 32.6391 126.8742 72° East  Level Estimated
06:55AM 32.6786 127.0211 72° East  Level Estimated
06:56AM 32.7180 127.1681 72° East  Level Estimated
06:57AM 32.7572 127.3153 72° East  Level Estimated
06:58AM 32.7962 127.4626 72° East  Level Estimated
06:59AM 32.8350 127.6100 73° East  Level Estimated
07:00AM 32.8737 127.7575 73° East  Level Estimated
07:01AM 32.9122 127.9052 73° East  Level Estimated
07:02AM 32.9506 128.0530 73° East  Level Estimated
07:03AM 32.9887 128.2009 73° East  Level Estimated
07:04AM 33.0267 128.3489 73° East  Level Estimated
07:05AM 33.0645 128.4971 73° East  Level Estimated
07:06AM 33.1021 128.6454 73° East  Level Estimated
07:07AM 33.1396 128.7938 73° East  Level Estimated
07:08AM 33.1769 128.9424 73° East  Level Estimated
07:09AM 33.2140 129.0911 73° East  Level Estimated
07:10AM 33.2509 129.2399 73° East  Level Estimated
07:11AM 33.2877 129.3888 74° East  Level Estimated
07:12AM 33.3242 129.5379 74° East  Level Estimated
07:13AM 33.3606 129.6871 74° East  Level Estimated
07:14AM 33.3969 129.8364 74° East  Level Estimated
07:15AM 33.4329 129.9858 74° East  Level Estimated
07:16AM 33.4688 130.1354 74° East  Level Estimated
07:17AM 33.5044 130.2850 74° East  Level Estimated
07:18AM 33.5399 130.4348 74° East  Level Estimated
07:19AM 33.5752 130.5848 74° East  Level Estimated
07:20AM 33.6104 130.7348 74° East  Level Estimated
07:21AM 33.6453 130.8850 74° East  Level Estimated
07:22AM 33.6801 131.0353 74° East  Level Estimated
07:23AM 33.7147 131.1857 75° East  Level Estimated
07:24AM 33.7491 131.3362 75° East  Level Estimated
07:25AM 33.7833 131.4869 75° East  Level Estimated
07:26AM 33.8174 131.6376 75° East  Level Estimated
07:27AM 33.8512 131.7885 75° East  Level Estimated
07:28AM 33.8849 131.9395 75° East  Level Estimated
07:29AM 33.9184 132.0907 75° East  Level Estimated
07:30AM 33.9517 132.2419 75° East  Level Estimated
07:31AM 33.9848 132.3933 75° East  Level Estimated
07:32AM 34.0178 132.5448 75° East  Level Estimated
07:33AM 34.0505 132.6964 75° East  Level Estimated
07:34AM 34.0831 132.8481 75° East  Level Estimated
07:35AM 34.1155 132.9999 76° East  Level Estimated
07:36AM 34.1476 133.1519 76° East  Level Estimated
07:37AM 34.1796 133.3040 76° East  Level Estimated
07:38AM 34.2114 133.4561 76° East  Level Estimated
07:39AM 34.2431 133.6084 76° East  Level Estimated
07:40AM 34.2745 133.7608 76° East  Level Estimated
07:41AM 34.3058 133.9134 76° East  Level Estimated
07:42AM 34.3368 134.0660 76° East  Level Estimated
07:43AM 34.3677 134.2188 76° East  Level Estimated
07:44AM 34.3984 134.3716 76° East  Level Estimated
07:45AM 34.4289 134.5246 76° East  Level Estimated
07:46AM 34.4592 134.6777 76° East  Level Estimated
07:47AM 34.4893 134.8309 77° East  Level Estimated
07:48AM 34.5192 134.9842 77° East  Level Estimated
07:49AM 34.5489 135.1376 77° East  Level Estimated
07:50AM 34.5784 135.2912 77° East  Level Estimated
07:51AM 34.6078 135.4448 77° East  Level Estimated
07:52AM 34.6369 135.5985 77° East  Level Estimated
07:53AM 34.6659 135.7524 77° East  Level Estimated
07:54AM 34.6947 135.9064 77° East  Level Estimated
07:55AM 34.7232 136.0604 77° East  Level Estimated
07:56AM 34.7516 136.2146 77° East  Level Estimated
07:57AM 34.7798 136.3689 77° East  Level Estimated
07:58AM 34.8078 136.5233 78° East  Level Estimated
07:59AM 34.8355 136.6777 78° East  Level Estimated
08:00AM 34.8583 136.8053 78° East  Level Estimated
08:01AM 34.8583 136.8053 331° Northwest  Level Estimated
08:02AM 34.8583 136.8053 331° Northwest  Level Estimated
08:03AM 34.8583 136.8053 331° Northwest  Level Estimated
08:04AM 34.8583 136.8053 331° Northwest  Level Estimated
08:05AM 34.8583 136.8053 331° Northwest  Level Estimated
08:06AM 34.8583 136.8053 331° Northwest  Level Estimated
08:07AM 34.8583 136.8053 331° Northwest  Level Estimated
08:08AM 34.8583 136.8053 331° Northwest  Level Estimated
08:09AM 34.8583 136.8053 331° Northwest  Level Estimated
08:10AM 34.8583 136.8053 331° Northwest  Level Estimated
08:11AM 34.8583 136.8053 331° Northwest  Level Estimated